sensor_id;sensor_type;location;lat;lon;timestamp;pressure;altitude;pressure_sealevel;temperature;humidity
51759;BME280;66684;47.568;18.734;2023-02-21T00:02:33;99398.16;;;10.19;68.91
51759;BME280;66684;47.568;18.734;2023-02-21T00:05:18;99400.50;;;10.13;69.09
51759;BME280;66684;47.568;18.734;2023-02-21T00:08:02;99380.25;;;10.01;69.24
51759;BME280;66684;47.568;18.734;2023-02-21T00:10:46;99379.97;;;10.16;68.23
51759;BME280;66684;47.568;18.734;2023-02-21T00:13:35;99383.37;;;10.15;68.02
51759;BME280;66684;47.568;18.734;2023-02-21T00:16:19;99388.19;;;10.06;68.83
51759;BME280;66684;47.568;18.734;2023-02-21T00:19:04;99382.66;;;9.96;69.37
51759;BME280;66684;47.568;18.734;2023-02-21T00:21:48;99385.28;;;9.98;69.00
51759;BME280;66684;47.568;18.734;2023-02-21T00:24:33;99366.16;;;9.93;69.13
51759;BME280;66684;47.568;18.734;2023-02-21T00:27:17;99372.22;;;9.93;69.32
51759;BME280;66684;47.568;18.734;2023-02-21T00:30:03;99374.38;;;9.83;69.91
51759;BME280;66684;47.568;18.734;2023-02-21T00:32:47;99372.12;;;9.69;70.47
51759;BME280;66684;47.568;18.734;2023-02-21T00:35:32;99377.53;;;9.76;70.00
51759;BME280;66684;47.568;18.734;2023-02-21T00:38:16;99390.87;;;9.65;71.35
51759;BME280;66684;47.568;18.734;2023-02-21T00:41:01;99388.72;;;9.55;71.73
51759;BME280;66684;47.568;18.734;2023-02-21T00:43:45;99389.03;;;9.42;73.53
51759;BME280;66684;47.568;18.734;2023-02-21T00:46:30;99400.47;;;9.28;74.46
51759;BME280;66684;47.568;18.734;2023-02-21T00:49:15;99383.81;;;9.19;74.60
51759;BME280;66684;47.568;18.734;2023-02-21T00:51:59;99390.59;;;9.17;74.15
51759;BME280;66684;47.568;18.734;2023-02-21T00:54:44;99398.25;;;9.16;75.12
51759;BME280;66684;47.568;18.734;2023-02-21T00:57:28;99392.41;;;8.99;76.21
51759;BME280;66684;47.568;18.734;2023-02-21T01:00:20;99386.53;;;9.03;75.97
51759;BME280;66684;47.568;18.734;2023-02-21T01:03:05;99372.56;;;8.98;75.26
51759;BME280;66684;47.568;18.734;2023-02-21T01:05:50;99381.75;;;8.91;76.56
51759;BME280;66684;47.568;18.734;2023-02-21T01:08:35;99377.63;;;8.95;76.14
51759;BME280;66684;47.568;18.734;2023-02-21T01:11:20;99381.28;;;9.00;76.17
51759;BME280;66684;47.568;18.734;2023-02-21T01:14:06;99376.94;;;8.80;78.18
51759;BME280;66684;47.568;18.734;2023-02-21T01:16:51;99376.69;;;8.93;76.54
51759;BME280;66684;47.568;18.734;2023-02-21T01:19:35;99370.69;;;8.94;77.13
51759;BME280;66684;47.568;18.734;2023-02-21T01:22:20;99372.19;;;8.89;76.72
51759;BME280;66684;47.568;18.734;2023-02-21T01:25:05;99377.41;;;8.90;76.24
51759;BME280;66684;47.568;18.734;2023-02-21T01:27:49;99379.38;;;8.96;75.69
51759;BME280;66684;47.568;18.734;2023-02-21T01:30:34;99375.97;;;8.97;75.08
51759;BME280;66684;47.568;18.734;2023-02-21T01:33:18;99376.22;;;9.03;74.69
51759;BME280;66684;47.568;18.734;2023-02-21T01:36:06;99384.13;;;9.06;74.11
51759;BME280;66684;47.568;18.734;2023-02-21T01:38:51;99369.72;;;9.11;73.63
51759;BME280;66684;47.568;18.734;2023-02-21T01:41:35;99380.09;;;9.13;73.69
51759;BME280;66684;47.568;18.734;2023-02-21T01:44:35;99373.09;;;9.10;73.40
51759;BME280;66684;47.568;18.734;2023-02-21T01:47:20;99371.69;;;8.98;73.97
51759;BME280;66684;47.568;18.734;2023-02-21T01:50:21;99370.66;;;8.93;74.41
51759;BME280;66684;47.568;18.734;2023-02-21T01:53:17;99355.91;;;8.90;74.28
51759;BME280;66684;47.568;18.734;2023-02-21T01:56:02;99349.94;;;8.91;74.14
51759;BME280;66684;47.568;18.734;2023-02-21T01:58:49;99350.34;;;9.00;73.40
51759;BME280;66684;47.568;18.734;2023-02-21T02:01:52;99333.31;;;9.04;73.00
51759;BME280;66684;47.568;18.734;2023-02-21T02:04:37;99337.00;;;9.10;72.96
51759;BME280;66684;47.568;18.734;2023-02-21T02:07:22;99334.84;;;9.19;72.01
51759;BME280;66684;47.568;18.734;2023-02-21T02:10:08;99336.59;;;9.21;71.87
51759;BME280;66684;47.568;18.734;2023-02-21T02:15:42;99332.13;;;9.16;72.57
51759;BME280;66684;47.568;18.734;2023-02-21T02:18:49;99324.22;;;9.12;72.37
51759;BME280;66684;47.568;18.734;2023-02-21T02:27:16;99323.44;;;9.14;72.90
51759;BME280;66684;47.568;18.734;2023-02-21T02:38:18;99297.09;;;9.22;73.64
51759;BME280;66684;47.568;18.734;2023-02-21T02:40:58;99312.81;;;9.28;73.62
51759;BME280;66684;47.568;18.734;2023-02-21T02:43:49;99333.28;;;9.44;73.01
51759;BME280;66684;47.568;18.734;2023-02-21T02:46:30;99310.75;;;9.40;73.54
51759;BME280;66684;47.568;18.734;2023-02-21T02:49:01;99308.31;;;9.43;73.42
51759;BME280;66684;47.568;18.734;2023-02-21T02:51:28;99291.87;;;9.41;73.73
51759;BME280;66684;47.568;18.734;2023-02-21T02:53:54;99302.94;;;9.38;73.97
51759;BME280;66684;47.568;18.734;2023-02-21T02:56:20;99288.94;;;9.54;73.18
51759;BME280;66684;47.568;18.734;2023-02-21T02:58:56;99300.37;;;9.61;72.84
51759;BME280;66684;47.568;18.734;2023-02-21T03:10:35;99293.84;;;9.91;71.17
51759;BME280;66684;47.568;18.734;2023-02-21T03:15:36;99300.00;;;9.95;70.75
51759;BME280;66684;47.568;18.734;2023-02-21T03:20:43;99286.75;;;9.86;71.60
51759;BME280;66684;47.568;18.734;2023-02-21T03:23:13;99291.91;;;9.86;70.89
51759;BME280;66684;47.568;18.734;2023-02-21T03:25:41;99281.34;;;9.80;71.80
51759;BME280;66684;47.568;18.734;2023-02-21T03:28:07;99308.81;;;9.78;71.71
51759;BME280;66684;47.568;18.734;2023-02-21T03:30:34;99311.38;;;9.78;72.06
51759;BME280;66684;47.568;18.734;2023-02-21T03:33:00;99287.19;;;9.53;73.50
51759;BME280;66684;47.568;18.734;2023-02-21T03:35:28;99295.41;;;9.43;74.53
51759;BME280;66684;47.568;18.734;2023-02-21T03:37:56;99288.72;;;9.48;73.87
51759;BME280;66684;47.568;18.734;2023-02-21T03:40:26;99297.03;;;9.41;74.28
51759;BME280;66684;47.568;18.734;2023-02-21T03:42:54;99297.28;;;9.47;73.93
51759;BME280;66684;47.568;18.734;2023-02-21T03:45:21;99308.31;;;9.43;74.29
51759;BME280;66684;47.568;18.734;2023-02-21T03:47:47;99306.97;;;9.32;74.74
51759;BME280;66684;47.568;18.734;2023-02-21T03:50:13;99310.69;;;9.38;74.60
51759;BME280;66684;47.568;18.734;2023-02-21T03:52:39;99290.13;;;9.40;74.49
51759;BME280;66684;47.568;18.734;2023-02-21T03:55:06;99304.66;;;9.38;74.37
51759;BME280;66684;47.568;18.734;2023-02-21T03:57:32;99304.97;;;9.45;73.75
51759;BME280;66684;47.568;18.734;2023-02-21T03:59:58;99305.72;;;9.43;74.19
51759;BME280;66684;47.568;18.734;2023-02-21T04:02:25;99303.00;;;9.40;74.16
51759;BME280;66684;47.568;18.734;2023-02-21T04:04:50;99313.03;;;9.32;75.07
51759;BME280;66684;47.568;18.734;2023-02-21T04:07:18;99318.22;;;9.34;74.87
51759;BME280;66684;47.568;18.734;2023-02-21T04:09:47;99317.28;;;9.32;74.87
51759;BME280;66684;47.568;18.734;2023-02-21T04:12:13;99296.78;;;9.35;75.06
51759;BME280;66684;47.568;18.734;2023-02-21T04:14:39;99311.62;;;9.40;74.64
51759;BME280;66684;47.568;18.734;2023-02-21T04:17:05;99303.69;;;9.36;75.24
51759;BME280;66684;47.568;18.734;2023-02-21T04:19:32;99318.81;;;9.27;75.13
51759;BME280;66684;47.568;18.734;2023-02-21T04:21:57;99318.16;;;9.53;73.57
51759;BME280;66684;47.568;18.734;2023-02-21T04:24:23;99326.66;;;9.51;73.59
51759;BME280;66684;47.568;18.734;2023-02-21T04:26:49;99317.53;;;9.38;74.28
51759;BME280;66684;47.568;18.734;2023-02-21T04:29:15;99322.00;;;9.42;73.61
51759;BME280;66684;47.568;18.734;2023-02-21T04:31:41;99320.44;;;9.45;73.24
51759;BME280;66684;47.568;18.734;2023-02-21T04:34:07;99314.66;;;9.30;73.42
51759;BME280;66684;47.568;18.734;2023-02-21T04:36:33;99324.97;;;9.51;71.97
51759;BME280;66684;47.568;18.734;2023-02-21T04:38:59;99311.12;;;9.49;71.99
51759;BME280;66684;47.568;18.734;2023-02-21T04:41:25;99318.91;;;9.51;70.95
51759;BME280;66684;47.568;18.734;2023-02-21T04:43:50;99310.16;;;9.47;71.13
51759;BME280;66684;47.568;18.734;2023-02-21T04:46:18;99309.22;;;9.45;71.48
51759;BME280;66684;47.568;18.734;2023-02-21T04:48:46;99319.31;;;9.39;71.40
51759;BME280;66684;47.568;18.734;2023-02-21T04:51:14;99307.22;;;9.38;71.60
51759;BME280;66684;47.568;18.734;2023-02-21T04:53:40;99299.78;;;9.45;70.82
51759;BME280;66684;47.568;18.734;2023-02-21T04:56:06;99299.59;;;9.41;71.17
51759;BME280;66684;47.568;18.734;2023-02-21T04:58:32;99286.47;;;9.35;71.49
51759;BME280;66684;47.568;18.734;2023-02-21T05:00:58;99282.81;;;9.30;72.31
51759;BME280;66684;47.568;18.734;2023-02-21T05:03:24;99291.94;;;9.22;73.25
51759;BME280;66684;47.568;18.734;2023-02-21T05:05:50;99286.78;;;9.22;73.16
51759;BME280;66684;47.568;18.734;2023-02-21T05:08:16;99284.09;;;9.18;73.59
51759;BME280;66684;47.568;18.734;2023-02-21T05:10:42;99288.12;;;9.12;74.15
51759;BME280;66684;47.568;18.734;2023-02-21T05:13:08;99284.22;;;9.22;74.22
51759;BME280;66684;47.568;18.734;2023-02-21T05:15:34;99287.38;;;9.14;74.49
51759;BME280;66684;47.568;18.734;2023-02-21T05:18:00;99295.16;;;9.16;74.74
51759;BME280;66684;47.568;18.734;2023-02-21T05:20:26;99301.25;;;8.97;75.95
51759;BME280;66684;47.568;18.734;2023-02-21T05:22:51;99300.97;;;8.91;76.39
51759;BME280;66684;47.568;18.734;2023-02-21T05:25:20;99287.28;;;8.92;76.56
51759;BME280;66684;47.568;18.734;2023-02-21T05:27:47;99303.72;;;8.94;76.46
51759;BME280;66684;47.568;18.734;2023-02-21T05:30:15;99298.16;;;8.85;76.86
51759;BME280;66684;47.568;18.734;2023-02-21T05:32:41;99301.28;;;8.78;77.64
51759;BME280;66684;47.568;18.734;2023-02-21T05:35:08;99318.50;;;8.79;77.89
51759;BME280;66684;47.568;18.734;2023-02-21T05:37:34;99308.06;;;8.76;78.05
51759;BME280;66684;47.568;18.734;2023-02-21T05:40:00;99314.47;;;8.85;78.21
51759;BME280;66684;47.568;18.734;2023-02-21T05:42:26;99300.06;;;8.89;77.74
51759;BME280;66684;47.568;18.734;2023-02-21T05:44:52;99307.09;;;8.93;77.59
51759;BME280;66684;47.568;18.734;2023-02-21T05:47:18;99296.22;;;9.00;77.08
51759;BME280;66684;47.568;18.734;2023-02-21T05:49:44;99304.69;;;8.98;77.40
51759;BME280;66684;47.568;18.734;2023-02-21T05:52:11;99300.75;;;9.06;77.05
51759;BME280;66684;47.568;18.734;2023-02-21T05:54:38;99300.69;;;9.04;77.25
51759;BME280;66684;47.568;18.734;2023-02-21T05:57:04;99308.56;;;9.07;77.56
51759;BME280;66684;47.568;18.734;2023-02-21T05:59:30;99310.97;;;9.04;77.54
51759;BME280;66684;47.568;18.734;2023-02-21T06:01:57;99311.38;;;9.13;77.49
51759;BME280;66684;47.568;18.734;2023-02-21T06:04:23;99292.78;;;9.21;77.20
51759;BME280;66684;47.568;18.734;2023-02-21T06:06:49;99300.63;;;9.24;77.11
51759;BME280;66684;47.568;18.734;2023-02-21T06:09:17;99290.69;;;9.33;76.87
51759;BME280;66684;47.568;18.734;2023-02-21T06:11:43;99306.59;;;9.23;78.41
51759;BME280;66684;47.568;18.734;2023-02-21T06:14:18;99297.16;;;9.23;78.21
51759;BME280;66684;47.568;18.734;2023-02-21T06:16:44;99303.69;;;9.36;77.76
51759;BME280;66684;47.568;18.734;2023-02-21T06:19:12;99295.03;;;9.34;78.57
51759;BME280;66684;47.568;18.734;2023-02-21T06:21:39;99304.19;;;9.48;78.76
51759;BME280;66684;47.568;18.734;2023-02-21T06:24:07;99305.84;;;9.46;79.46
51759;BME280;66684;47.568;18.734;2023-02-21T06:26:33;99311.22;;;9.52;79.58
51759;BME280;66684;47.568;18.734;2023-02-21T06:28:59;99299.41;;;9.57;79.25
51759;BME280;66684;47.568;18.734;2023-02-21T06:31:25;99298.63;;;9.60;78.79
51759;BME280;66684;47.568;18.734;2023-02-21T06:33:51;99294.34;;;9.60;78.88
51759;BME280;66684;47.568;18.734;2023-02-21T06:36:20;99298.69;;;9.61;77.60
51759;BME280;66684;47.568;18.734;2023-02-21T06:38:48;99313.63;;;9.68;75.80
51759;BME280;66684;47.568;18.734;2023-02-21T06:41:20;99322.28;;;9.70;74.93
51759;BME280;66684;47.568;18.734;2023-02-21T06:43:50;99320.94;;;9.80;72.95
51759;BME280;66684;47.568;18.734;2023-02-21T06:46:21;99317.72;;;9.86;72.79
51759;BME280;66684;47.568;18.734;2023-02-21T06:48:48;99324.66;;;9.87;71.26
51759;BME280;66684;47.568;18.734;2023-02-21T06:51:14;99326.88;;;10.00;71.23
51759;BME280;66684;47.568;18.734;2023-02-21T06:53:41;99318.31;;;10.01;69.74
51759;BME280;66684;47.568;18.734;2023-02-21T06:56:07;99323.81;;;10.10;69.26
51759;BME280;66684;47.568;18.734;2023-02-21T06:58:34;99330.97;;;10.17;69.45
51759;BME280;66684;47.568;18.734;2023-02-21T07:01:00;99331.97;;;10.21;68.64
51759;BME280;66684;47.568;18.734;2023-02-21T07:03:26;99324.47;;;10.27;68.50
51759;BME280;66684;47.568;18.734;2023-02-21T07:05:52;99335.22;;;10.38;68.21
51759;BME280;66684;47.568;18.734;2023-02-21T07:08:18;99319.59;;;10.35;68.64
51759;BME280;66684;47.568;18.734;2023-02-21T07:10:44;99342.97;;;10.38;69.10
51759;BME280;66684;47.568;18.734;2023-02-21T07:13:10;99337.19;;;10.45;69.15
51759;BME280;66684;47.568;18.734;2023-02-21T07:15:36;99339.19;;;10.52;69.17
51759;BME280;66684;47.568;18.734;2023-02-21T07:18:01;99335.44;;;10.44;70.36
51759;BME280;66684;47.568;18.734;2023-02-21T07:20:27;99346.94;;;10.52;69.50
51759;BME280;66684;47.568;18.734;2023-02-21T07:22:53;99336.53;;;10.50;70.70
51759;BME280;66684;47.568;18.734;2023-02-21T07:25:21;99342.91;;;10.60;69.03
51759;BME280;66684;47.568;18.734;2023-02-21T07:27:48;99347.69;;;10.73;67.87
51759;BME280;66684;47.568;18.734;2023-02-21T07:30:15;99341.38;;;10.65;68.06
51759;BME280;66684;47.568;18.734;2023-02-21T07:32:41;99351.00;;;10.69;68.75
51759;BME280;66684;47.568;18.734;2023-02-21T07:35:07;99358.81;;;10.71;68.99
51759;BME280;66684;47.568;18.734;2023-02-21T07:37:34;99358.84;;;10.72;68.83
51759;BME280;66684;47.568;18.734;2023-02-21T07:39:59;99374.25;;;10.69;70.51
51759;BME280;66684;47.568;18.734;2023-02-21T07:42:25;99358.75;;;10.69;70.39
51759;BME280;66684;47.568;18.734;2023-02-21T07:44:56;99365.91;;;10.76;69.88
51759;BME280;66684;47.568;18.734;2023-02-21T07:47:23;99357.75;;;10.90;69.21
51759;BME280;66684;47.568;18.734;2023-02-21T07:49:49;99366.34;;;10.89;69.05
51759;BME280;66684;47.568;18.734;2023-02-21T07:52:15;99360.34;;;10.90;68.93
51759;BME280;66684;47.568;18.734;2023-02-21T07:54:41;99371.59;;;10.92;68.86
51759;BME280;66684;47.568;18.734;2023-02-21T07:57:07;99375.03;;;10.91;68.61
51759;BME280;66684;47.568;18.734;2023-02-21T07:59:33;99364.81;;;10.94;68.60
51759;BME280;66684;47.568;18.734;2023-02-21T08:01:58;99374.00;;;10.87;69.29
51759;BME280;66684;47.568;18.734;2023-02-21T08:04:25;99359.91;;;10.77;69.75
51759;BME280;66684;47.568;18.734;2023-02-21T08:06:51;99378.09;;;10.80;68.48
51759;BME280;66684;47.568;18.734;2023-02-21T08:09:17;99397.22;;;10.86;68.57
51759;BME280;66684;47.568;18.734;2023-02-21T08:11:43;99357.62;;;10.87;68.67
51759;BME280;66684;47.568;18.734;2023-02-21T08:14:09;99378.25;;;10.85;69.73
51759;BME280;66684;47.568;18.734;2023-02-21T08:16:35;99364.28;;;10.80;69.20
51759;BME280;66684;47.568;18.734;2023-02-21T08:19:00;99376.56;;;10.86;70.16
51759;BME280;66684;47.568;18.734;2023-02-21T08:21:26;99379.09;;;10.84;70.93
51759;BME280;66684;47.568;18.734;2023-02-21T08:23:53;99380.41;;;10.97;70.71
51759;BME280;66684;47.568;18.734;2023-02-21T08:26:20;99372.88;;;11.03;70.68
51759;BME280;66684;47.568;18.734;2023-02-21T08:28:46;99364.28;;;11.04;70.76
51759;BME280;66684;47.568;18.734;2023-02-21T08:31:12;99396.12;;;11.03;71.93
51759;BME280;66684;47.568;18.734;2023-02-21T08:33:38;99377.38;;;11.08;71.92
51759;BME280;66684;47.568;18.734;2023-02-21T08:36:05;99394.34;;;11.00;72.32
51759;BME280;66684;47.568;18.734;2023-02-21T08:38:31;99377.41;;;11.10;72.91
51759;BME280;66684;47.568;18.734;2023-02-21T08:40:57;99382.81;;;11.16;72.51
51759;BME280;66684;47.568;18.734;2023-02-21T08:43:23;99386.53;;;11.24;72.44
51759;BME280;66684;47.568;18.734;2023-02-21T08:45:50;99380.47;;;11.24;73.54
51759;BME280;66684;47.568;18.734;2023-02-21T08:48:16;99381.34;;;11.24;72.17
51759;BME280;66684;47.568;18.734;2023-02-21T08:50:42;99391.91;;;11.30;72.29
51759;BME280;66684;47.568;18.734;2023-02-21T08:53:10;99374.84;;;11.35;72.24
51759;BME280;66684;47.568;18.734;2023-02-21T08:55:37;99373.72;;;11.27;71.04
51759;BME280;66684;47.568;18.734;2023-02-21T08:58:03;99389.84;;;11.20;71.31
51759;BME280;66684;47.568;18.734;2023-02-21T09:00:29;99372.16;;;11.32;72.22
51759;BME280;66684;47.568;18.734;2023-02-21T09:02:56;99371.97;;;11.26;71.91
51759;BME280;66684;47.568;18.734;2023-02-21T09:05:26;99388.91;;;11.44;71.91
51759;BME280;66684;47.568;18.734;2023-02-21T09:07:53;99371.75;;;11.46;71.70
51759;BME280;66684;47.568;18.734;2023-02-21T09:10:28;99377.13;;;11.52;71.98
51759;BME280;66684;47.568;18.734;2023-02-21T09:12:54;99370.00;;;11.45;71.62
51759;BME280;66684;47.568;18.734;2023-02-21T09:15:20;99383.53;;;11.38;72.19
51759;BME280;66684;47.568;18.734;2023-02-21T09:17:46;99386.94;;;11.37;72.92
51759;BME280;66684;47.568;18.734;2023-02-21T09:20:17;99390.97;;;11.54;73.01
51759;BME280;66684;47.568;18.734;2023-02-21T09:22:44;99387.12;;;11.68;72.36
51759;BME280;66684;47.568;18.734;2023-02-21T09:25:11;99380.94;;;11.63;71.72
51759;BME280;66684;47.568;18.734;2023-02-21T09:27:38;99385.38;;;11.67;74.13
51759;BME280;66684;47.568;18.734;2023-02-21T09:30:17;99387.75;;;11.61;72.83
51759;BME280;66684;47.568;18.734;2023-02-21T09:32:43;99392.59;;;11.50;73.97
51759;BME280;66684;47.568;18.734;2023-02-21T09:35:09;99410.00;;;11.56;74.47
51759;BME280;66684;47.568;18.734;2023-02-21T09:37:39;99402.31;;;11.57;73.92
51759;BME280;66684;47.568;18.734;2023-02-21T09:42:49;99399.06;;;11.63;74.50
51759;BME280;66684;47.568;18.734;2023-02-21T09:45:18;99385.50;;;11.70;75.04
51759;BME280;66684;47.568;18.734;2023-02-21T09:47:52;99400.47;;;11.80;74.04
51759;BME280;66684;47.568;18.734;2023-02-21T09:50:23;99399.94;;;11.89;73.06
51759;BME280;66684;47.568;18.734;2023-02-21T09:52:55;99388.97;;;11.98;73.32
51759;BME280;66684;47.568;18.734;2023-02-21T09:55:39;99406.66;;;12.11;72.29
51759;BME280;66684;47.568;18.734;2023-02-21T09:58:13;99395.47;;;12.12;72.42
51759;BME280;66684;47.568;18.734;2023-02-21T10:00:40;99380.56;;;12.05;72.89
51759;BME280;66684;47.568;18.734;2023-02-21T10:03:35;99405.97;;;12.17;72.28
51759;BME280;66684;47.568;18.734;2023-02-21T10:11:31;99421.00;;;12.28;73.06
51759;BME280;66684;47.568;18.734;2023-02-21T10:19:28;99391.41;;;12.20;73.27
51759;BME280;66684;47.568;18.734;2023-02-21T10:21:57;99390.06;;;12.33;73.14
51759;BME280;66684;47.568;18.734;2023-02-21T10:24:26;99384.81;;;12.31;75.07
51759;BME280;66684;47.568;18.734;2023-02-21T10:29:29;99393.97;;;12.49;74.99
51759;BME280;66684;47.568;18.734;2023-02-21T10:32:00;99378.53;;;12.52;73.22
51759;BME280;66684;47.568;18.734;2023-02-21T10:34:30;99376.50;;;12.41;74.18
51759;BME280;66684;47.568;18.734;2023-02-21T10:37:15;99372.34;;;12.47;73.63
51759;BME280;66684;47.568;18.734;2023-02-21T10:39:49;99373.94;;;12.43;74.13
51759;BME280;66684;47.568;18.734;2023-02-21T10:42:27;99383.63;;;12.49;74.65
51759;BME280;66684;47.568;18.734;2023-02-21T10:44:56;99390.38;;;12.43;73.85
51759;BME280;66684;47.568;18.734;2023-02-21T10:50:11;99377.44;;;12.15;75.31
51759;BME280;66684;47.568;18.734;2023-02-21T10:52:46;99403.69;;;12.26;74.82
51759;BME280;66684;47.568;18.734;2023-02-21T10:55:18;99389.75;;;12.22;75.20
51759;BME280;66684;47.568;18.734;2023-02-21T10:57:48;99400.28;;;12.28;75.06
51759;BME280;66684;47.568;18.734;2023-02-21T11:00:34;99382.56;;;12.42;74.48
51759;BME280;66684;47.568;18.734;2023-02-21T11:03:20;99394.31;;;12.31;75.25
51759;BME280;66684;47.568;18.734;2023-02-21T11:05:52;99384.19;;;12.38;76.13
51759;BME280;66684;47.568;18.734;2023-02-21T11:08:41;99402.25;;;12.65;74.46
51759;BME280;66684;47.568;18.734;2023-02-21T11:11:07;99385.94;;;12.39;74.86
51759;BME280;66684;47.568;18.734;2023-02-21T11:13:34;99384.81;;;12.31;75.33
51759;BME280;66684;47.568;18.734;2023-02-21T11:16:18;99381.78;;;12.45;75.19
51759;BME280;66684;47.568;18.734;2023-02-21T11:19:04;99392.84;;;12.69;74.92
51759;BME280;66684;47.568;18.734;2023-02-21T11:21:30;99418.31;;;12.54;74.08
51759;BME280;66684;47.568;18.734;2023-02-21T11:24:03;99402.97;;;12.60;75.10
51759;BME280;66684;47.568;18.734;2023-02-21T11:26:35;99392.47;;;12.57;74.36
51759;BME280;66684;47.568;18.734;2023-02-21T11:29:14;99401.97;;;12.56;74.55
51759;BME280;66684;47.568;18.734;2023-02-21T11:31:42;99394.62;;;12.13;76.72
51759;BME280;66684;47.568;18.734;2023-02-21T11:34:11;99397.09;;;12.08;77.67
51759;BME280;66684;47.568;18.734;2023-02-21T11:36:40;99400.09;;;12.22;77.83
51759;BME280;66684;47.568;18.734;2023-02-21T11:44:33;99394.38;;;12.32;77.28
51759;BME280;66684;47.568;18.734;2023-02-21T11:47:28;99386.16;;;12.47;76.69
51759;BME280;66684;47.568;18.734;2023-02-21T11:52:47;99387.91;;;12.48;77.88
51759;BME280;66684;47.568;18.734;2023-02-21T11:55:17;99383.03;;;12.57;77.11
51759;BME280;66684;47.568;18.734;2023-02-21T12:03:06;99405.53;;;12.31;77.76
51759;BME280;66684;47.568;18.734;2023-02-21T12:20:05;99388.63;;;12.42;77.99
51759;BME280;66684;47.568;18.734;2023-02-21T12:22:26;99378.19;;;12.39;79.45
51759;BME280;66684;47.568;18.734;2023-02-21T12:25:22;99387.91;;;12.48;78.80
51759;BME280;66684;47.568;18.734;2023-02-21T12:30:51;99381.16;;;12.83;77.78
51759;BME280;66684;47.568;18.734;2023-02-21T12:33:42;99382.75;;;12.78;77.35
51759;BME280;66684;47.568;18.734;2023-02-21T12:45:01;99360.25;;;12.77;78.23
51759;BME280;66684;47.568;18.734;2023-02-21T12:47:49;99352.91;;;12.94;78.49
51759;BME280;66684;47.568;18.734;2023-02-21T12:50:22;99352.47;;;13.09;77.20
51759;BME280;66684;47.568;18.734;2023-02-21T12:53:01;99365.53;;;13.13;77.55
51759;BME280;66684;47.568;18.734;2023-02-21T12:55:38;99363.72;;;13.09;76.16
51759;BME280;66684;47.568;18.734;2023-02-21T12:59:03;99366.44;;;13.14;76.81
51759;BME280;66684;47.568;18.734;2023-02-21T13:01:17;99359.91;;;12.96;75.68
51759;BME280;66684;47.568;18.734;2023-02-21T13:06:36;99375.84;;;13.10;76.23
51759;BME280;66684;47.568;18.734;2023-02-21T13:09:29;99363.94;;;12.85;76.19
51759;BME280;66684;47.568;18.734;2023-02-21T13:12:04;99363.38;;;12.97;77.02
51759;BME280;66684;47.568;18.734;2023-02-21T13:14:37;99352.19;;;13.00;76.56
51759;BME280;66684;47.568;18.734;2023-02-21T13:17:09;99362.91;;;13.12;76.16
51759;BME280;66684;47.568;18.734;2023-02-21T13:19:43;99370.19;;;13.25;76.03
51759;BME280;66684;47.568;18.734;2023-02-21T13:22:19;99355.81;;;13.38;74.03
51759;BME280;66684;47.568;18.734;2023-02-21T13:24:57;99365.06;;;13.27;75.50
51759;BME280;66684;47.568;18.734;2023-02-21T13:27:34;99367.87;;;13.03;74.91
51759;BME280;66684;47.568;18.734;2023-02-21T13:31:16;99355.91;;;13.08;74.58
51759;BME280;66684;47.568;18.734;2023-02-21T13:33:42;99373.56;;;12.89;75.48
51759;BME280;66684;47.568;18.734;2023-02-21T13:36:19;99361.25;;;13.14;74.68
51759;BME280;66684;47.568;18.734;2023-02-21T13:41:34;99349.28;;;12.87;76.27
51759;BME280;66684;47.568;18.734;2023-02-21T13:44:05;99356.47;;;12.98;75.94
51759;BME280;66684;47.568;18.734;2023-02-21T13:55:20;99335.56;;;12.91;76.28
51759;BME280;66684;47.568;18.734;2023-02-21T14:08:13;99314.13;;;12.65;75.41
51759;BME280;66684;47.568;18.734;2023-02-21T14:10:44;99321.19;;;12.71;75.49
51759;BME280;66684;47.568;18.734;2023-02-21T14:13:23;99320.41;;;12.75;75.47
51759;BME280;66684;47.568;18.734;2023-02-21T14:18:39;99327.28;;;12.73;75.99
51759;BME280;66684;47.568;18.734;2023-02-21T14:21:28;99322.09;;;12.73;75.04
51759;BME280;66684;47.568;18.734;2023-02-21T14:26:41;99327.12;;;12.67;75.73
51759;BME280;66684;47.568;18.734;2023-02-21T14:31:55;99334.16;;;12.71;75.31
51759;BME280;66684;47.568;18.734;2023-02-21T15:00:33;99338.53;;;12.43;75.99
51759;BME280;66684;47.568;18.734;2023-02-21T15:02:40;99336.78;;;12.42;75.38
51759;BME280;66684;47.568;18.734;2023-02-21T15:05:41;99340.16;;;12.38;75.24
51759;BME280;66684;47.568;18.734;2023-02-21T15:08:16;99343.19;;;12.25;75.62
51759;BME280;66684;47.568;18.734;2023-02-21T15:10:45;99346.91;;;12.33;75.32
51759;BME280;66684;47.568;18.734;2023-02-21T15:13:26;99334.50;;;12.23;75.38
51759;BME280;66684;47.568;18.734;2023-02-21T15:15:58;99344.09;;;12.26;75.48
51759;BME280;66684;47.568;18.734;2023-02-21T15:23:38;99337.63;;;12.13;75.80
51759;BME280;66684;47.568;18.734;2023-02-21T15:26:19;99339.44;;;12.14;75.66
51759;BME280;66684;47.568;18.734;2023-02-21T15:29:05;99332.66;;;12.19;75.38
51759;BME280;66684;47.568;18.734;2023-02-21T15:31:40;99325.91;;;12.24;75.14
51759;BME280;66684;47.568;18.734;2023-02-21T15:34:27;99338.47;;;12.12;76.45
51759;BME280;66684;47.568;18.734;2023-02-21T15:37:15;99323.88;;;12.14;75.96
51759;BME280;66684;47.568;18.734;2023-02-21T15:39:44;99338.41;;;12.09;76.10
51759;BME280;66684;47.568;18.734;2023-02-21T15:42:15;99332.19;;;12.04;76.54
51759;BME280;66684;47.568;18.734;2023-02-21T15:44:53;99342.09;;;11.88;76.58
51759;BME280;66684;47.568;18.734;2023-02-21T15:47:22;99344.72;;;11.90;77.08
51759;BME280;66684;47.568;18.734;2023-02-21T15:50:10;99339.25;;;11.81;77.52
51759;BME280;66684;47.568;18.734;2023-02-21T15:57:46;99345.87;;;11.73;77.54
51759;BME280;66684;47.568;18.734;2023-02-21T16:00:26;99341.06;;;11.83;77.01
51759;BME280;66684;47.568;18.734;2023-02-21T16:03:29;99346.75;;;11.73;78.03
51759;BME280;66684;47.568;18.734;2023-02-21T16:09:00;99347.97;;;11.57;78.81